sensor_id;sensor_type;location;lat;lon;timestamp;temperature;humidity
43920;DHT22;29578;51.946;5.874;2022-10-23T00:29:09;12.00;91.80
43920;DHT22;29578;51.946;5.874;2022-10-23T00:32:12;12.10;91.50
43920;DHT22;29578;51.946;5.874;2022-10-23T00:35:33;12.00;91.50
43920;DHT22;29578;51.946;5.874;2022-10-23T00:38:21;12.00;91.50
43920;DHT22;29578;51.946;5.874;2022-10-23T00:40:55;12.00;91.50
43920;DHT22;29578;51.946;5.874;2022-10-23T00:46:38;12.00;91.60
43920;DHT22;29578;51.946;5.874;2022-10-23T00:49:05;12.00;91.60
43920;DHT22;29578;51.946;5.874;2022-10-23T00:51:38;12.00;91.60
43920;DHT22;29578;51.946;5.874;2022-10-23T00:54:05;12.00;91.60
43920;DHT22;29578;51.946;5.874;2022-10-23T01:03:40;12.00;91.60
43920;DHT22;29578;51.946;5.874;2022-10-23T01:06:44;12.00;91.70
43920;DHT22;29578;51.946;5.874;2022-10-23T01:16:20;12.00;91.70
43920;DHT22;29578;51.946;5.874;2022-10-23T01:19:31;12.00;91.70
43920;DHT22;29578;51.946;5.874;2022-10-23T01:22:39;11.90;91.60
43920;DHT22;29578;51.946;5.874;2022-10-23T01:25:25;12.00;91.70
43920;DHT22;29578;51.946;5.874;2022-10-23T01:31:49;12.00;91.70
43920;DHT22;29578;51.946;5.874;2022-10-23T01:37:51;12.00;91.70
43920;DHT22;29578;51.946;5.874;2022-10-23T01:41:02;12.00;91.70
43920;DHT22;29578;51.946;5.874;2022-10-23T01:44:10;11.90;91.70
43920;DHT22;29578;51.946;5.874;2022-10-23T01:46:51;12.00;91.70
43920;DHT22;29578;51.946;5.874;2022-10-23T01:49:28;12.00;91.70
43920;DHT22;29578;51.946;5.874;2022-10-23T01:52:42;11.90;91.70
43920;DHT22;29578;51.946;5.874;2022-10-23T01:55:18;12.00;91.70
43920;DHT22;29578;51.946;5.874;2022-10-23T01:57:49;12.00;91.70
43920;DHT22;29578;51.946;5.874;2022-10-23T02:00:19;12.00;91.70
43920;DHT22;29578;51.946;5.874;2022-10-23T02:02:47;12.00;91.70
43920;DHT22;29578;51.946;5.874;2022-10-23T02:05:17;11.90;91.70
43920;DHT22;29578;51.946;5.874;2022-10-23T02:07:46;11.90;91.70
43920;DHT22;29578;51.946;5.874;2022-10-23T02:10:13;11.90;91.80
43920;DHT22;29578;51.946;5.874;2022-10-23T02:13:02;11.80;91.80
43920;DHT22;29578;51.946;5.874;2022-10-23T02:15:35;11.80;91.80
43920;DHT22;29578;51.946;5.874;2022-10-23T02:18:25;11.90;91.80
43920;DHT22;29578;51.946;5.874;2022-10-23T02:20:56;11.80;91.80
43920;DHT22;29578;51.946;5.874;2022-10-23T02:23:34;11.80;91.80
43920;DHT22;29578;51.946;5.874;2022-10-23T02:26:16;11.80;91.90
43920;DHT22;29578;51.946;5.874;2022-10-23T02:28:48;11.80;91.90
43920;DHT22;29578;51.946;5.874;2022-10-23T02:31:15;11.90;91.90
43920;DHT22;29578;51.946;5.874;2022-10-23T02:33:44;11.80;91.80
43920;DHT22;29578;51.946;5.874;2022-10-23T02:36:11;11.90;91.80
43920;DHT22;29578;51.946;5.874;2022-10-23T02:38:40;11.80;91.80
43920;DHT22;29578;51.946;5.874;2022-10-23T02:44:13;11.80;91.80
43920;DHT22;29578;51.946;5.874;2022-10-23T02:47:08;11.70;91.90
43920;DHT22;29578;51.946;5.874;2022-10-23T02:49:52;11.80;91.90
43920;DHT22;29578;51.946;5.874;2022-10-23T02:52:41;11.80;91.90
43920;DHT22;29578;51.946;5.874;2022-10-23T02:58:17;11.70;91.90
43920;DHT22;29578;51.946;5.874;2022-10-23T03:00:49;11.70;91.90
43920;DHT22;29578;51.946;5.874;2022-10-23T03:03:23;11.70;91.90
43920;DHT22;29578;51.946;5.874;2022-10-23T03:05:51;11.70;91.90
43920;DHT22;29578;51.946;5.874;2022-10-23T03:08:17;11.70;91.90
43920;DHT22;29578;51.946;5.874;2022-10-23T03:10:42;11.70;92.00
43920;DHT22;29578;51.946;5.874;2022-10-23T03:13:09;11.70;92.00
43920;DHT22;29578;51.946;5.874;2022-10-23T03:15:35;11.70;92.00
43920;DHT22;29578;51.946;5.874;2022-10-23T03:18:01;11.70;92.00
43920;DHT22;29578;51.946;5.874;2022-10-23T03:20:27;11.80;92.00
43920;DHT22;29578;51.946;5.874;2022-10-23T03:22:52;11.70;92.00
43920;DHT22;29578;51.946;5.874;2022-10-23T03:25:18;11.60;91.90
43920;DHT22;29578;51.946;5.874;2022-10-23T03:27:44;11.70;92.00
43920;DHT22;29578;51.946;5.874;2022-10-23T03:30:10;11.70;91.90
43920;DHT22;29578;51.946;5.874;2022-10-23T03:32:36;11.70;92.00
43920;DHT22;29578;51.946;5.874;2022-10-23T03:35:02;11.70;92.00
43920;DHT22;29578;51.946;5.874;2022-10-23T03:37:31;11.70;92.00
43920;DHT22;29578;51.946;5.874;2022-10-23T03:39:57;11.70;92.00
43920;DHT22;29578;51.946;5.874;2022-10-23T03:42:22;11.70;92.00
43920;DHT22;29578;51.946;5.874;2022-10-23T03:44:51;11.70;92.00
43920;DHT22;29578;51.946;5.874;2022-10-23T03:47:16;11.70;92.00
43920;DHT22;29578;51.946;5.874;2022-10-23T03:49:42;11.70;91.90
43920;DHT22;29578;51.946;5.874;2022-10-23T03:52:08;11.70;91.90
43920;DHT22;29578;51.946;5.874;2022-10-23T03:54:34;11.80;91.90
43920;DHT22;29578;51.946;5.874;2022-10-23T03:57:00;11.70;91.90
43920;DHT22;29578;51.946;5.874;2022-10-23T03:59:26;11.80;92.00
43920;DHT22;29578;51.946;5.874;2022-10-23T04:01:54;11.80;92.00
43920;DHT22;29578;51.946;5.874;2022-10-23T04:04:20;11.80;91.90
43920;DHT22;29578;51.946;5.874;2022-10-23T04:06:46;11.80;91.90
43920;DHT22;29578;51.946;5.874;2022-10-23T04:09:12;11.80;91.90
43920;DHT22;29578;51.946;5.874;2022-10-23T04:11:37;11.80;91.90
43920;DHT22;29578;51.946;5.874;2022-10-23T04:14:03;11.90;91.90
43920;DHT22;29578;51.946;5.874;2022-10-23T04:16:29;11.90;91.90
43920;DHT22;29578;51.946;5.874;2022-10-23T04:18:54;11.90;91.90
43920;DHT22;29578;51.946;5.874;2022-10-23T04:21:20;12.00;91.90
43920;DHT22;29578;51.946;5.874;2022-10-23T04:23:46;12.00;91.90
43920;DHT22;29578;51.946;5.874;2022-10-23T04:26:12;12.00;91.90
43920;DHT22;29578;51.946;5.874;2022-10-23T04:28:38;12.00;91.90
43920;DHT22;29578;51.946;5.874;2022-10-23T04:31:04;12.10;91.90
43920;DHT22;29578;51.946;5.874;2022-10-23T04:33:29;12.00;91.80
43920;DHT22;29578;51.946;5.874;2022-10-23T04:35:55;12.10;91.90
43920;DHT22;29578;51.946;5.874;2022-10-23T04:38:21;12.10;91.90
43920;DHT22;29578;51.946;5.874;2022-10-23T04:40:47;11.90;91.80
43920;DHT22;29578;51.946;5.874;2022-10-23T04:43:12;12.00;91.90
43920;DHT22;29578;51.946;5.874;2022-10-23T04:45:38;12.00;91.90
43920;DHT22;29578;51.946;5.874;2022-10-23T04:48:04;12.10;91.90
43920;DHT22;29578;51.946;5.874;2022-10-23T04:50:30;12.00;91.90
43920;DHT22;29578;51.946;5.874;2022-10-23T04:52:56;12.00;91.90
43920;DHT22;29578;51.946;5.874;2022-10-23T04:55:23;12.10;91.90
43920;DHT22;29578;51.946;5.874;2022-10-23T04:57:50;12.10;91.90
43920;DHT22;29578;51.946;5.874;2022-10-23T05:00:17;12.10;92.00
43920;DHT22;29578;51.946;5.874;2022-10-23T05:02:43;12.10;92.00
43920;DHT22;29578;51.946;5.874;2022-10-23T05:05:09;12.10;92.20
43920;DHT22;29578;51.946;5.874;2022-10-23T05:07:36;12.10;92.00
43920;DHT22;29578;51.946;5.874;2022-10-23T05:10:03;12.10;92.00
43920;DHT22;29578;51.946;5.874;2022-10-23T05:12:29;12.10;92.00
43920;DHT22;29578;51.946;5.874;2022-10-23T05:14:54;12.10;92.00
43920;DHT22;29578;51.946;5.874;2022-10-23T05:17:28;12.10;92.00
43920;DHT22;29578;51.946;5.874;2022-10-23T05:19:55;12.10;92.00
43920;DHT22;29578;51.946;5.874;2022-10-23T05:22:24;12.10;92.00
43920;DHT22;29578;51.946;5.874;2022-10-23T05:24:51;12.10;92.00
43920;DHT22;29578;51.946;5.874;2022-10-23T05:27:18;12.10;92.00
43920;DHT22;29578;51.946;5.874;2022-10-23T05:29:44;12.10;92.00
43920;DHT22;29578;51.946;5.874;2022-10-23T05:32:11;12.10;92.00
43920;DHT22;29578;51.946;5.874;2022-10-23T05:34:39;12.10;92.00
43920;DHT22;29578;51.946;5.874;2022-10-23T05:37:08;12.20;92.10
43920;DHT22;29578;51.946;5.874;2022-10-23T05:39:35;12.10;92.00
43920;DHT22;29578;51.946;5.874;2022-10-23T05:42:01;12.20;92.10
43920;DHT22;29578;51.946;5.874;2022-10-23T05:44:27;12.20;92.00
43920;DHT22;29578;51.946;5.874;2022-10-23T05:46:53;12.20;92.00
43920;DHT22;29578;51.946;5.874;2022-10-23T05:49:18;12.20;92.00
43920;DHT22;29578;51.946;5.874;2022-10-23T05:51:44;12.30;92.00
43920;DHT22;29578;51.946;5.874;2022-10-23T05:54:10;12.30;92.00
43920;DHT22;29578;51.946;5.874;2022-10-23T05:56:38;12.40;92.00
43920;DHT22;29578;51.946;5.874;2022-10-23T05:59:06;12.30;92.00
43920;DHT22;29578;51.946;5.874;2022-10-23T06:01:32;12.40;92.00
43920;DHT22;29578;51.946;5.874;2022-10-23T06:03:59;12.40;92.00
43920;DHT22;29578;51.946;5.874;2022-10-23T06:06:25;12.40;92.00
43920;DHT22;29578;51.946;5.874;2022-10-23T06:08:50;12.40;92.00
43920;DHT22;29578;51.946;5.874;2022-10-23T06:11:17;12.40;92.00
43920;DHT22;29578;51.946;5.874;2022-10-23T06:13:44;12.40;92.00
43920;DHT22;29578;51.946;5.874;2022-10-23T06:16:14;12.50;92.00
43920;DHT22;29578;51.946;5.874;2022-10-23T06:18:41;12.50;92.00
43920;DHT22;29578;51.946;5.874;2022-10-23T06:21:07;12.40;92.00
43920;DHT22;29578;51.946;5.874;2022-10-23T06:23:34;12.50;92.00
43920;DHT22;29578;51.946;5.874;2022-10-23T06:26:01;12.50;92.00
43920;DHT22;29578;51.946;5.874;2022-10-23T06:28:27;12.50;92.00
43920;DHT22;29578;51.946;5.874;2022-10-23T06:30:53;12.50;92.00
43920;DHT22;29578;51.946;5.874;2022-10-23T06:33:19;12.40;92.00
43920;DHT22;29578;51.946;5.874;2022-10-23T06:35:45;12.60;92.00
43920;DHT22;29578;51.946;5.874;2022-10-23T06:38:11;12.60;92.00
43920;DHT22;29578;51.946;5.874;2022-10-23T06:40:37;12.60;92.00
43920;DHT22;29578;51.946;5.874;2022-10-23T06:43:03;12.60;92.00
43920;DHT22;29578;51.946;5.874;2022-10-23T06:45:30;12.60;92.00
43920;DHT22;29578;51.946;5.874;2022-10-23T06:47:58;12.80;92.10
43920;DHT22;29578;51.946;5.874;2022-10-23T06:50:24;12.60;92.00
43920;DHT22;29578;51.946;5.874;2022-10-23T06:52:50;12.70;92.00
43920;DHT22;29578;51.946;5.874;2022-10-23T06:55:17;12.70;92.00
43920;DHT22;29578;51.946;5.874;2022-10-23T06:57:42;12.70;92.00
43920;DHT22;29578;51.946;5.874;2022-10-23T07:00:09;12.70;92.00
43920;DHT22;29578;51.946;5.874;2022-10-23T07:02:38;12.70;92.00
43920;DHT22;29578;51.946;5.874;2022-10-23T07:05:04;12.80;92.00
43920;DHT22;29578;51.946;5.874;2022-10-23T07:07:30;12.80;92.00
43920;DHT22;29578;51.946;5.874;2022-10-23T07:09:55;12.80;92.00
43920;DHT22;29578;51.946;5.874;2022-10-23T07:12:21;12.80;92.00
43920;DHT22;29578;51.946;5.874;2022-10-23T07:14:47;12.80;92.00
43920;DHT22;29578;51.946;5.874;2022-10-23T07:17:13;12.90;92.00
43920;DHT22;29578;51.946;5.874;2022-10-23T07:19:38;12.80;92.00
43920;DHT22;29578;51.946;5.874;2022-10-23T07:22:05;12.90;92.00
43920;DHT22;29578;51.946;5.874;2022-10-23T07:24:30;12.90;92.00
43920;DHT22;29578;51.946;5.874;2022-10-23T07:27:02;12.90;92.00
43920;DHT22;29578;51.946;5.874;2022-10-23T07:29:28;13.00;92.00
43920;DHT22;29578;51.946;5.874;2022-10-23T07:31:53;13.00;92.00
43920;DHT22;29578;51.946;5.874;2022-10-23T07:34:19;13.00;92.00
43920;DHT22;29578;51.946;5.874;2022-10-23T07:36:45;13.00;92.00
43920;DHT22;29578;51.946;5.874;2022-10-23T07:39:11;13.10;92.00
43920;DHT22;29578;51.946;5.874;2022-10-23T07:41:37;13.10;92.00
43920;DHT22;29578;51.946;5.874;2022-10-23T07:44:03;13.10;92.20
43920;DHT22;29578;51.946;5.874;2022-10-23T07:46:28;13.10;92.20
43920;DHT22;29578;51.946;5.874;2022-10-23T07:48:54;13.20;92.00
43920;DHT22;29578;51.946;5.874;2022-10-23T07:51:20;13.30;92.00
43920;DHT22;29578;51.946;5.874;2022-10-23T07:53:48;13.30;91.90
43920;DHT22;29578;51.946;5.874;2022-10-23T07:56:17;13.30;91.90
43920;DHT22;29578;51.946;5.874;2022-10-23T07:58:45;13.40;91.90
43920;DHT22;29578;51.946;5.874;2022-10-23T08:01:36;13.20;91.80
43920;DHT22;29578;51.946;5.874;2022-10-23T08:04:02;13.40;91.80
43920;DHT22;29578;51.946;5.874;2022-10-23T08:06:31;13.50;91.80
43920;DHT22;29578;51.946;5.874;2022-10-23T08:08:57;13.40;91.80
43920;DHT22;29578;51.946;5.874;2022-10-23T08:11:24;13.50;91.80
43920;DHT22;29578;51.946;5.874;2022-10-23T08:13:54;13.60;91.80
43920;DHT22;29578;51.946;5.874;2022-10-23T08:16:21;13.60;91.80
43920;DHT22;29578;51.946;5.874;2022-10-23T08:18:47;13.60;91.80
43920;DHT22;29578;51.946;5.874;2022-10-23T08:21:14;13.60;91.80
43920;DHT22;29578;51.946;5.874;2022-10-23T08:23:40;13.70;91.80
43920;DHT22;29578;51.946;5.874;2022-10-23T08:26:06;13.70;91.80
43920;DHT22;29578;51.946;5.874;2022-10-23T08:28:32;13.70;92.10
43920;DHT22;29578;51.946;5.874;2022-10-23T08:30:58;13.80;91.80
43920;DHT22;29578;51.946;5.874;2022-10-23T08:33:24;13.80;91.80
43920;DHT22;29578;51.946;5.874;2022-10-23T08:35:50;13.90;91.80
43920;DHT22;29578;51.946;5.874;2022-10-23T08:38:16;13.90;91.80
43920;DHT22;29578;51.946;5.874;2022-10-23T08:40:45;13.90;91.70
43920;DHT22;29578;51.946;5.874;2022-10-23T08:43:21;14.00;91.70
43920;DHT22;29578;51.946;5.874;2022-10-23T08:45:55;14.00;91.70
43920;DHT22;29578;51.946;5.874;2022-10-23T08:48:37;14.10;91.70
43920;DHT22;29578;51.946;5.874;2022-10-23T08:53:53;14.20;91.60
43920;DHT22;29578;51.946;5.874;2022-10-23T08:56:41;14.30;91.60
43920;DHT22;29578;51.946;5.874;2022-10-23T09:02:14;14.40;91.60
43920;DHT22;29578;51.946;5.874;2022-10-23T09:04:47;14.40;91.60
43920;DHT22;29578;51.946;5.874;2022-10-23T09:07:58;14.50;91.60
43920;DHT22;29578;51.946;5.874;2022-10-23T09:10:50;14.50;91.50
43920;DHT22;29578;51.946;5.874;2022-10-23T09:16:38;14.70;91.50
43920;DHT22;29578;51.946;5.874;2022-10-23T09:19:15;14.70;91.40
43920;DHT22;29578;51.946;5.874;2022-10-23T09:21:43;14.80;91.40
43920;DHT22;29578;51.946;5.874;2022-10-23T09:24:16;14.80;91.40
43920;DHT22;29578;51.946;5.874;2022-10-23T09:26:44;14.80;91.40
43920;DHT22;29578;51.946;5.874;2022-10-23T09:29:22;14.90;91.40
43920;DHT22;29578;51.946;5.874;2022-10-23T09:31:54;14.90;91.40
43920;DHT22;29578;51.946;5.874;2022-10-23T09:34:25;14.90;91.40
43920;DHT22;29578;51.946;5.874;2022-10-23T09:36:54;14.90;91.40
43920;DHT22;29578;51.946;5.874;2022-10-23T09:39:23;14.90;91.40
43920;DHT22;29578;51.946;5.874;2022-10-23T09:41:49;15.10;91.40
43920;DHT22;29578;51.946;5.874;2022-10-23T09:44:19;15.00;91.40
43920;DHT22;29578;51.946;5.874;2022-10-23T09:46:49;15.10;91.40
43920;DHT22;29578;51.946;5.874;2022-10-23T09:49:18;15.10;91.40
43920;DHT22;29578;51.946;5.874;2022-10-23T09:51:53;15.20;91.40
43920;DHT22;29578;51.946;5.874;2022-10-23T09:54:21;15.20;91.40
43920;DHT22;29578;51.946;5.874;2022-10-23T09:56:49;15.30;91.40
43920;DHT22;29578;51.946;5.874;2022-10-23T09:59:23;15.30;91.40
43920;DHT22;29578;51.946;5.874;2022-10-23T10:01:56;15.30;91.40
43920;DHT22;29578;51.946;5.874;2022-10-23T10:04:32;15.30;91.30
43920;DHT22;29578;51.946;5.874;2022-10-23T10:06:59;15.50;91.30
43920;DHT22;29578;51.946;5.874;2022-10-23T10:09:26;15.40;91.30
43920;DHT22;29578;51.946;5.874;2022-10-23T10:11:54;15.40;91.30
43920;DHT22;29578;51.946;5.874;2022-10-23T10:23:49;15.70;91.20
43920;DHT22;29578;51.946;5.874;2022-10-23T10:26:35;15.80;91.20
43920;DHT22;29578;51.946;5.874;2022-10-23T10:29:19;15.80;91.20
43920;DHT22;29578;51.946;5.874;2022-10-23T10:34:47;15.90;91.10
43920;DHT22;29578;51.946;5.874;2022-10-23T10:37:36;16.00;91.10
43920;DHT22;29578;51.946;5.874;2022-10-23T10:40:24;16.00;91.10
43920;DHT22;29578;51.946;5.874;2022-10-23T10:43:16;16.00;91.00
43920;DHT22;29578;51.946;5.874;2022-10-23T10:45:47;16.10;91.10
43920;DHT22;29578;51.946;5.874;2022-10-23T10:48:27;16.00;91.00
43920;DHT22;29578;51.946;5.874;2022-10-23T10:51:04;16.10;91.00
43920;DHT22;29578;51.946;5.874;2022-10-23T10:53:49;16.10;91.00
43920;DHT22;29578;51.946;5.874;2022-10-23T10:56:18;16.20;91.00
43920;DHT22;29578;51.946;5.874;2022-10-23T10:58:55;16.20;91.00
43920;DHT22;29578;51.946;5.874;2022-10-23T11:01:41;16.20;91.00
43920;DHT22;29578;51.946;5.874;2022-10-23T11:04:33;16.20;91.00
43920;DHT22;29578;51.946;5.874;2022-10-23T11:07:06;16.30;91.00
43920;DHT22;29578;51.946;5.874;2022-10-23T11:09:33;16.40;91.00
43920;DHT22;29578;51.946;5.874;2022-10-23T11:11:59;16.40;91.00
43920;DHT22;29578;51.946;5.874;2022-10-23T11:14:28;16.40;90.90
43920;DHT22;29578;51.946;5.874;2022-10-23T11:17:04;16.50;90.90
43920;DHT22;29578;51.946;5.874;2022-10-23T11:19:38;16.60;90.90
43920;DHT22;29578;51.946;5.874;2022-10-23T11:22:20;16.40;90.80
43920;DHT22;29578;51.946;5.874;2022-10-23T11:28:12;16.60;90.80
43920;DHT22;29578;51.946;5.874;2022-10-23T11:33:59;16.70;90.80
43920;DHT22;29578;51.946;5.874;2022-10-23T11:36:42;16.80;90.70
43920;DHT22;29578;51.946;5.874;2022-10-23T11:39:26;16.80;90.70
43920;DHT22;29578;51.946;5.874;2022-10-23T11:42:10;17.00;90.70
43920;DHT22;29578;51.946;5.874;2022-10-23T11:44:40;17.00;90.60
43920;DHT22;29578;51.946;5.874;2022-10-23T11:47:34;16.90;90.50
43920;DHT22;29578;51.946;5.874;2022-10-23T11:50:22;17.10;90.50
43920;DHT22;29578;51.946;5.874;2022-10-23T11:53:03;17.10;90.40
43920;DHT22;29578;51.946;5.874;2022-10-23T11:55:31;17.10;90.40
43920;DHT22;29578;51.946;5.874;2022-10-23T11:58:15;17.20;90.40
43920;DHT22;29578;51.946;5.874;2022-10-23T12:01:01;17.20;90.40
43920;DHT22;29578;51.946;5.874;2022-10-23T12:03:36;17.20;90.30
43920;DHT22;29578;51.946;5.874;2022-10-23T12:06:04;17.30;90.40
43920;DHT22;29578;51.946;5.874;2022-10-23T12:08:33;17.50;90.30
43920;DHT22;29578;51.946;5.874;2022-10-23T12:11:00;17.40;90.30
43920;DHT22;29578;51.946;5.874;2022-10-23T12:13:43;17.50;90.30
43920;DHT22;29578;51.946;5.874;2022-10-23T12:16:10;17.60;90.20
43920;DHT22;29578;51.946;5.874;2022-10-23T12:18:50;17.60;90.20
43920;DHT22;29578;51.946;5.874;2022-10-23T12:21:18;17.60;90.10
43920;DHT22;29578;51.946;5.874;2022-10-23T12:24:11;17.70;90.10
43920;DHT22;29578;51.946;5.874;2022-10-23T12:29:44;17.80;90.00
43920;DHT22;29578;51.946;5.874;2022-10-23T12:35:27;17.90;90.00
43920;DHT22;29578;51.946;5.874;2022-10-23T12:40:35;17.90;89.90
43920;DHT22;29578;51.946;5.874;2022-10-23T12:43:00;18.00;90.00
43920;DHT22;29578;51.946;5.874;2022-10-23T12:45:33;18.00;90.00
43920;DHT22;29578;51.946;5.874;2022-10-23T12:48:01;18.00;89.90
43920;DHT22;29578;51.946;5.874;2022-10-23T12:50:30;18.00;89.90
43920;DHT22;29578;51.946;5.874;2022-10-23T12:52:59;18.10;90.00
43920;DHT22;29578;51.946;5.874;2022-10-23T12:55:33;18.10;89.90
43920;DHT22;29578;51.946;5.874;2022-10-23T12:58:34;18.20;89.90
43920;DHT22;29578;51.946;5.874;2022-10-23T13:01:04;18.20;89.90
43920;DHT22;29578;51.946;5.874;2022-10-23T13:03:31;18.20;89.80
43920;DHT22;29578;51.946;5.874;2022-10-23T13:05:59;18.20;89.70
43920;DHT22;29578;51.946;5.874;2022-10-23T13:08:42;18.30;89.70
43920;DHT22;29578;51.946;5.874;2022-10-23T13:11:15;18.40;89.80
43920;DHT22;29578;51.946;5.874;2022-10-23T13:13:45;18.20;89.60
43920;DHT22;29578;51.946;5.874;2022-10-23T13:16:14;18.40;89.80
43920;DHT22;29578;51.946;5.874;2022-10-23T13:18:40;18.40;89.70
43920;DHT22;29578;51.946;5.874;2022-10-23T13:21:15;18.40;89.70
43920;DHT22;29578;51.946;5.874;2022-10-23T13:23:42;18.30;89.70
43920;DHT22;29578;51.946;5.874;2022-10-23T13:26:29;18.40;89.80
43920;DHT22;29578;51.946;5.874;2022-10-23T13:28:56;18.40;89.80
43920;DHT22;29578;51.946;5.874;2022-10-23T13:31:32;18.30;89.70
43920;DHT22;29578;51.946;5.874;2022-10-23T13:34:15;18.40;89.70
43920;DHT22;29578;51.946;5.874;2022-10-23T13:36:51;18.40;89.70
43920;DHT22;29578;51.946;5.874;2022-10-23T13:39:22;18.40;89.70
43920;DHT22;29578;51.946;5.874;2022-10-23T13:41:49;18.40;89.70
43920;DHT22;29578;51.946;5.874;2022-10-23T13:44:17;18.30;89.70
43920;DHT22;29578;51.946;5.874;2022-10-23T13:46:44;18.30;89.70
43920;DHT22;29578;51.946;5.874;2022-10-23T13:49:10;18.30;89.70
43920;DHT22;29578;51.946;5.874;2022-10-23T13:51:40;18.30;89.70
43920;DHT22;29578;51.946;5.874;2022-10-23T13:54:12;18.50;89.80
43920;DHT22;29578;51.946;5.874;2022-10-23T13:56:40;18.40;89.70
43920;DHT22;29578;51.946;5.874;2022-10-23T13:59:09;18.40;89.70
43920;DHT22;29578;51.946;5.874;2022-10-23T14:01:35;18.30;89.60
43920;DHT22;29578;51.946;5.874;2022-10-23T14:04:02;18.30;89.60
43920;DHT22;29578;51.946;5.874;2022-10-23T14:06:29;18.40;89.70
43920;DHT22;29578;51.946;5.874;2022-10-23T14:08:55;18.40;90.10
43920;DHT22;29578;51.946;5.874;2022-10-23T14:11:24;18.40;89.70
43920;DHT22;29578;51.946;5.874;2022-10-23T14:13:50;18.30;89.70
43920;DHT22;29578;51.946;5.874;2022-10-23T14:16:21;18.30;89.70
43920;DHT22;29578;51.946;5.874;2022-10-23T14:18:48;18.30;89.80
43920;DHT22;29578;51.946;5.874;2022-10-23T14:21:16;18.40;89.90
43920;DHT22;29578;51.946;5.874;2022-10-23T14:23:48;18.30;89.80
43920;DHT22;29578;51.946;5.874;2022-10-23T14:26:21;18.30;89.80
43920;DHT22;29578;51.946;5.874;2022-10-23T14:28:50;18.20;89.80
43920;DHT22;29578;51.946;5.874;2022-10-23T14:31:19;18.30;89.80
43920;DHT22;29578;51.946;5.874;2022-10-23T14:33:54;18.30;89.80
43920;DHT22;29578;51.946;5.874;2022-10-23T14:36:23;18.30;89.80
43920;DHT22;29578;51.946;5.874;2022-10-23T14:38:49;18.20;89.80
43920;DHT22;29578;51.946;5.874;2022-10-23T14:41:18;18.30;89.80
43920;DHT22;29578;51.946;5.874;2022-10-23T14:43:44;18.30;89.90
43920;DHT22;29578;51.946;5.874;2022-10-23T14:46:13;18.20;89.80
43920;DHT22;29578;51.946;5.874;2022-10-23T14:48:40;18.30;89.90
43920;DHT22;29578;51.946;5.874;2022-10-23T14:51:17;18.20;89.80
43920;DHT22;29578;51.946;5.874;2022-10-23T14:53:54;18.20;89.90
43920;DHT22;29578;51.946;5.874;2022-10-23T14:56:20;18.10;89.90
43920;DHT22;29578;51.946;5.874;2022-10-23T14:58:47;18.10;89.90
43920;DHT22;29578;51.946;5.874;2022-10-23T15:01:16;18.00;90.00
43920;DHT22;29578;51.946;5.874;2022-10-23T15:03:41;18.00;90.00
43920;DHT22;29578;51.946;5.874;2022-10-23T15:06:08;18.00;90.00
43920;DHT22;29578;51.946;5.874;2022-10-23T15:08:34;17.90;90.00
43920;DHT22;29578;51.946;5.874;2022-10-23T15:11:01;17.90;90.10
43920;DHT22;29578;51.946;5.874;2022-10-23T15:13:28;17.90;90.10
43920;DHT22;29578;51.946;5.874;2022-10-23T15:16:02;17.80;90.10
43920;DHT22;29578;51.946;5.874;2022-10-23T15:18:29;17.90;90.20
43920;DHT22;29578;51.946;5.874;2022-10-23T15:20:55;17.70;90.20
43920;DHT22;29578;51.946;5.874;2022-10-23T15:23:20;17.70;90.20
43920;DHT22;29578;51.946;5.874;2022-10-23T15:25:57;17.70;90.20
43920;DHT22;29578;51.946;5.874;2022-10-23T15:28:24;17.60;90.20
43920;DHT22;29578;51.946;5.874;2022-10-23T15:30:49;17.60;90.30
43920;DHT22;29578;51.946;5.874;2022-10-23T15:33:15;17.60;90.30
43920;DHT22;29578;51.946;5.874;2022-10-23T15:35:41;17.50;90.20
43920;DHT22;29578;51.946;5.874;2022-10-23T15:38:07;17.50;90.20
43920;DHT22;29578;51.946;5.874;2022-10-23T15:40:32;17.50;90.20
43920;DHT22;29578;51.946;5.874;2022-10-23T15:42:58;17.60;90.30
43920;DHT22;29578;51.946;5.874;2022-10-23T15:45:24;17.50;90.30
43920;DHT22;29578;51.946;5.874;2022-10-23T15:47:50;17.40;90.30
43920;DHT22;29578;51.946;5.874;2022-10-23T15:50:16;17.50;90.30
43920;DHT22;29578;51.946;5.874;2022-10-23T15:52:42;17.40;90.40
43920;DHT22;29578;51.946;5.874;2022-10-23T15:55:08;17.30;90.40
43920;DHT22;29578;51.946;5.874;2022-10-23T15:57:38;17.30;90.40
43920;DHT22;29578;51.946;5.874;2022-10-23T16:00:05;17.20;90.40
43920;DHT22;29578;51.946;5.874;2022-10-23T16:02:32;17.20;90.50
43920;DHT22;29578;51.946;5.874;2022-10-23T16:04:57;17.20;90.50
43920;DHT22;29578;51.946;5.874;2022-10-23T16:07:23;17.10;90.50
43920;DHT22;29578;51.946;5.874;2022-10-23T16:09:49;17.10;90.50
43920;DHT22;29578;51.946;5.874;2022-10-23T16:12:15;17.00;90.50
43920;DHT22;29578;51.946;5.874;2022-10-23T16:14:43;17.00;90.50
43920;DHT22;29578;51.946;5.874;2022-10-23T16:17:09;17.00;90.50
43920;DHT22;29578;51.946;5.874;2022-10-23T16:19:35;17.00;90.50
43920;DHT22;29578;51.946;5.874;2022-10-23T16:22:02;17.00;90.50
43920;DHT22;29578;51.946;5.874;2022-10-23T16:24:28;16.90;90.80
43920;DHT22;29578;51.946;5.874;2022-10-23T16:26:55;16.90;90.50
43920;DHT22;29578;51.946;5.874;2022-10-23T16:29:24;16.90;90.60
43920;DHT22;29578;51.946;5.874;2022-10-23T16:32:00;16.90;90.50
43920;DHT22;29578;51.946;5.874;2022-10-23T16:34:59;16.80;90.50
43920;DHT22;29578;51.946;5.874;2022-10-23T16:37:29;16.80;90.50
43920;DHT22;29578;51.946;5.874;2022-10-23T16:40:07;16.80;90.50
43920;DHT22;29578;51.946;5.874;2022-10-23T16:42:32;16.70;90.70
43920;DHT22;29578;51.946;5.874;2022-10-23T16:45:09;16.70;90.50
43920;DHT22;29578;51.946;5.874;2022-10-23T16:47:35;16.80;90.50
43920;DHT22;29578;51.946;5.874;2022-10-23T16:50:01;16.60;90.50
43920;DHT22;29578;51.946;5.874;2022-10-23T16:52:30;16.70;90.50
43920;DHT22;29578;51.946;5.874;2022-10-23T16:54:56;16.60;90.60
43920;DHT22;29578;51.946;5.874;2022-10-23T16:57:22;16.60;90.60
43920;DHT22;29578;51.946;5.874;2022-10-23T16:59:48;16.50;90.60
43920;DHT22;29578;51.946;5.874;2022-10-23T17:02:14;16.50;90.70
43920;DHT22;29578;51.946;5.874;2022-10-23T17:04:40;16.50;90.70
43920;DHT22;29578;51.946;5.874;2022-10-23T17:07:09;16.50;90.70
43920;DHT22;29578;51.946;5.874;2022-10-23T17:09:38;16.40;90.70
43920;DHT22;29578;51.946;5.874;2022-10-23T17:12:04;16.40;90.70
43920;DHT22;29578;51.946;5.874;2022-10-23T17:14:30;16.50;90.70
43920;DHT22;29578;51.946;5.874;2022-10-23T17:16:59;16.50;90.60
43920;DHT22;29578;51.946;5.874;2022-10-23T17:19:26;16.40;90.60
43920;DHT22;29578;51.946;5.874;2022-10-23T17:21:56;16.60;90.60
43920;DHT22;29578;51.946;5.874;2022-10-23T17:24:25;16.40;90.60
43920;DHT22;29578;51.946;5.874;2022-10-23T17:26:51;16.40;90.60
43920;DHT22;29578;51.946;5.874;2022-10-23T17:29:17;16.40;90.60